sensor_id;sensor_type;location;lat;lon;timestamp;P1;durP1;ratioP1;P2;durP2;ratioP2
59052;SDS011;44843;44.728;10.396;2023-06-14T00:01:31;7.43;;;2.80;;
59052;SDS011;44843;44.728;10.396;2023-06-14T00:03:59;13.85;;;2.67;;
59052;SDS011;44843;44.728;10.396;2023-06-14T00:06:26;7.47;;;2.83;;
59052;SDS011;44843;44.728;10.396;2023-06-14T00:08:52;10.13;;;2.92;;
59052;SDS011;44843;44.728;10.396;2023-06-14T00:11:17;8.93;;;2.70;;
59052;SDS011;44843;44.728;10.396;2023-06-14T00:13:42;8.87;;;2.57;;
59052;SDS011;44843;44.728;10.396;2023-06-14T00:16:08;7.47;;;2.73;;
59052;SDS011;44843;44.728;10.396;2023-06-14T00:18:33;10.40;;;3.20;;
59052;SDS011;44843;44.728;10.396;2023-06-14T00:20:59;5.77;;;2.40;;
59052;SDS011;44843;44.728;10.396;2023-06-14T00:23:25;6.88;;;2.60;;
59052;SDS011;44843;44.728;10.396;2023-06-14T00:25:50;8.10;;;2.80;;
59052;SDS011;44843;44.728;10.396;2023-06-14T00:28:16;6.15;;;2.50;;
59052;SDS011;44843;44.728;10.396;2023-06-14T00:30:41;8.70;;;2.80;;
59052;SDS011;44843;44.728;10.396;2023-06-14T00:33:09;9.50;;;2.90;;
59052;SDS011;44843;44.728;10.396;2023-06-14T00:35:34;8.90;;;2.70;;
59052;SDS011;44843;44.728;10.396;2023-06-14T00:38:00;6.43;;;2.77;;
59052;SDS011;44843;44.728;10.396;2023-06-14T00:40:26;9.70;;;2.72;;
59052;SDS011;44843;44.728;10.396;2023-06-14T00:42:52;5.33;;;2.70;;
59052;SDS011;44843;44.728;10.396;2023-06-14T00:45:17;6.30;;;2.72;;
59052;SDS011;44843;44.728;10.396;2023-06-14T00:47:43;5.83;;;2.90;;
59052;SDS011;44843;44.728;10.396;2023-06-14T00:50:10;7.80;;;2.53;;
59052;SDS011;44843;44.728;10.396;2023-06-14T00:52:36;8.13;;;2.50;;
59052;SDS011;44843;44.728;10.396;2023-06-14T00:55:02;8.13;;;2.53;;
59052;SDS011;44843;44.728;10.396;2023-06-14T00:57:28;7.43;;;2.60;;
59052;SDS011;44843;44.728;10.396;2023-06-14T00:59:54;7.57;;;2.90;;
59052;SDS011;44843;44.728;10.396;2023-06-14T01:02:20;9.43;;;2.70;;
59052;SDS011;44843;44.728;10.396;2023-06-14T01:04:46;5.63;;;2.70;;
59052;SDS011;44843;44.728;10.396;2023-06-14T01:15:32;6.40;;;2.70;;
59052;SDS011;44843;44.728;10.396;2023-06-14T01:17:59;8.20;;;2.70;;
59052;SDS011;44843;44.728;10.396;2023-06-14T01:20:31;8.55;;;2.70;;
59052;SDS011;44843;44.728;10.396;2023-06-14T01:22:57;13.63;;;2.75;;
59052;SDS011;44843;44.728;10.396;2023-06-14T01:25:23;9.43;;;3.03;;
59052;SDS011;44843;44.728;10.396;2023-06-14T01:27:50;7.43;;;2.60;;
59052;SDS011;44843;44.728;10.396;2023-06-14T01:30:18;10.48;;;2.60;;
59052;SDS011;44843;44.728;10.396;2023-06-14T01:32:46;10.82;;;2.47;;
59052;SDS011;44843;44.728;10.396;2023-06-14T01:35:13;7.70;;;2.70;;
59052;SDS011;44843;44.728;10.396;2023-06-14T01:37:39;8.82;;;3.00;;
59052;SDS011;44843;44.728;10.396;2023-06-14T01:40:06;9.15;;;2.70;;
59052;SDS011;44843;44.728;10.396;2023-06-14T01:42:35;12.10;;;2.72;;
59052;SDS011;44843;44.728;10.396;2023-06-14T01:45:03;9.38;;;3.05;;
59052;SDS011;44843;44.728;10.396;2023-06-14T01:47:30;8.48;;;2.80;;
59052;SDS011;44843;44.728;10.396;2023-06-14T01:49:57;8.70;;;3.10;;
59052;SDS011;44843;44.728;10.396;2023-06-14T01:52:22;8.70;;;2.88;;
59052;SDS011;44843;44.728;10.396;2023-06-14T01:54:49;10.30;;;3.20;;
59052;SDS011;44843;44.728;10.396;2023-06-14T01:57:15;7.35;;;2.80;;
59052;SDS011;44843;44.728;10.396;2023-06-14T01:59:40;10.30;;;2.90;;
59052;SDS011;44843;44.728;10.396;2023-06-14T02:02:06;9.87;;;2.63;;
59052;SDS011;44843;44.728;10.396;2023-06-14T02:04:31;9.07;;;3.07;;
59052;SDS011;44843;44.728;10.396;2023-06-14T02:06:57;9.40;;;2.97;;
59052;SDS011;44843;44.728;10.396;2023-06-14T02:09:22;11.07;;;2.80;;
59052;SDS011;44843;44.728;10.396;2023-06-14T02:11:48;8.83;;;2.90;;
59052;SDS011;44843;44.728;10.396;2023-06-14T02:14:14;6.03;;;2.80;;
59052;SDS011;44843;44.728;10.396;2023-06-14T02:16:41;11.27;;;3.17;;
59052;SDS011;44843;44.728;10.396;2023-06-14T02:19:13;7.53;;;2.72;;
59052;SDS011;44843;44.728;10.396;2023-06-14T02:21:40;6.95;;;2.75;;
59052;SDS011;44843;44.728;10.396;2023-06-14T02:24:06;8.32;;;3.05;;
59052;SDS011;44843;44.728;10.396;2023-06-14T02:26:31;8.63;;;3.08;;
59052;SDS011;44843;44.728;10.396;2023-06-14T02:28:57;11.07;;;3.05;;
59052;SDS011;44843;44.728;10.396;2023-06-14T02:31:23;11.13;;;3.20;;
59052;SDS011;44843;44.728;10.396;2023-06-14T02:33:49;8.65;;;2.70;;
59052;SDS011;44843;44.728;10.396;2023-06-14T02:36:14;10.83;;;3.00;;
59052;SDS011;44843;44.728;10.396;2023-06-14T02:38:40;8.37;;;2.90;;
59052;SDS011;44843;44.728;10.396;2023-06-14T02:41:06;14.75;;;3.17;;
59052;SDS011;44843;44.728;10.396;2023-06-14T02:43:31;8.77;;;3.23;;
59052;SDS011;44843;44.728;10.396;2023-06-14T02:45:57;7.00;;;2.70;;
59052;SDS011;44843;44.728;10.396;2023-06-14T02:48:22;10.40;;;3.13;;
59052;SDS011;44843;44.728;10.396;2023-06-14T02:50:47;10.23;;;2.93;;
59052;SDS011;44843;44.728;10.396;2023-06-14T02:53:13;8.52;;;3.17;;
59052;SDS011;44843;44.728;10.396;2023-06-14T02:55:38;8.70;;;2.90;;
59052;SDS011;44843;44.728;10.396;2023-06-14T02:58:05;7.63;;;2.80;;
59052;SDS011;44843;44.728;10.396;2023-06-14T03:00:30;8.68;;;3.28;;
59052;SDS011;44843;44.728;10.396;2023-06-14T03:02:56;8.27;;;2.78;;
59052;SDS011;44843;44.728;10.396;2023-06-14T03:05:22;10.10;;;2.90;;
59052;SDS011;44843;44.728;10.396;2023-06-14T03:07:48;9.90;;;3.33;;
59052;SDS011;44843;44.728;10.396;2023-06-14T03:10:15;8.73;;;2.97;;
59052;SDS011;44843;44.728;10.396;2023-06-14T03:12:41;8.80;;;2.97;;
59052;SDS011;44843;44.728;10.396;2023-06-14T03:15:06;6.53;;;2.80;;
59052;SDS011;44843;44.728;10.396;2023-06-14T03:17:32;10.85;;;3.25;;
59052;SDS011;44843;44.728;10.396;2023-06-14T03:20:00;9.15;;;2.92;;
59052;SDS011;44843;44.728;10.396;2023-06-14T03:22:26;10.00;;;2.85;;
59052;SDS011;44843;44.728;10.396;2023-06-14T03:24:54;8.18;;;2.70;;
59052;SDS011;44843;44.728;10.396;2023-06-14T03:27:20;8.48;;;2.88;;
59052;SDS011;44843;44.728;10.396;2023-06-14T03:29:45;7.27;;;2.80;;
59052;SDS011;44843;44.728;10.396;2023-06-14T03:32:11;9.53;;;3.00;;
59052;SDS011;44843;44.728;10.396;2023-06-14T03:34:36;8.90;;;3.30;;
59052;SDS011;44843;44.728;10.396;2023-06-14T03:37:04;9.20;;;2.65;;
59052;SDS011;44843;44.728;10.396;2023-06-14T03:39:29;7.47;;;2.80;;
59052;SDS011;44843;44.728;10.396;2023-06-14T03:41:55;8.93;;;2.87;;
59052;SDS011;44843;44.728;10.396;2023-06-14T03:44:20;9.52;;;3.03;;
59052;SDS011;44843;44.728;10.396;2023-06-14T03:46:46;7.20;;;2.73;;
59052;SDS011;44843;44.728;10.396;2023-06-14T03:49:11;9.10;;;2.70;;
59052;SDS011;44843;44.728;10.396;2023-06-14T03:51:37;9.95;;;2.90;;
59052;SDS011;44843;44.728;10.396;2023-06-14T03:54:02;6.30;;;2.40;;
59052;SDS011;44843;44.728;10.396;2023-06-14T03:56:28;4.50;;;2.40;;
59052;SDS011;44843;44.728;10.396;2023-06-14T03:58:53;8.13;;;2.90;;
59052;SDS011;44843;44.728;10.396;2023-06-14T04:01:19;4.68;;;2.28;;
59052;SDS011;44843;44.728;10.396;2023-06-14T04:03:45;9.15;;;2.85;;
59052;SDS011;44843;44.728;10.396;2023-06-14T04:06:10;4.70;;;2.20;;
59052;SDS011;44843;44.728;10.396;2023-06-14T04:08:36;6.53;;;2.60;;
59052;SDS011;44843;44.728;10.396;2023-06-14T04:11:01;6.97;;;2.40;;
59052;SDS011;44843;44.728;10.396;2023-06-14T04:13:27;7.45;;;3.60;;
59052;SDS011;44843;44.728;10.396;2023-06-14T04:15:52;7.68;;;2.50;;
59052;SDS011;44843;44.728;10.396;2023-06-14T04:18:18;7.50;;;2.40;;
59052;SDS011;44843;44.728;10.396;2023-06-14T04:20:44;8.50;;;2.30;;
59052;SDS011;44843;44.728;10.396;2023-06-14T04:23:13;8.20;;;2.50;;
59052;SDS011;44843;44.728;10.396;2023-06-14T04:25:40;11.77;;;2.60;;
59052;SDS011;44843;44.728;10.396;2023-06-14T04:28:10;11.50;;;2.75;;
59052;SDS011;44843;44.728;10.396;2023-06-14T04:30:40;6.00;;;2.20;;
59052;SDS011;44843;44.728;10.396;2023-06-14T04:33:06;6.32;;;2.17;;
59052;SDS011;44843;44.728;10.396;2023-06-14T04:35:32;4.30;;;2.03;;
59052;SDS011;44843;44.728;10.396;2023-06-14T04:37:58;8.68;;;2.50;;
59052;SDS011;44843;44.728;10.396;2023-06-14T04:40:24;7.63;;;2.47;;
59052;SDS011;44843;44.728;10.396;2023-06-14T04:42:49;6.33;;;2.60;;
59052;SDS011;44843;44.728;10.396;2023-06-14T04:45:16;5.22;;;2.47;;
59052;SDS011;44843;44.728;10.396;2023-06-14T04:47:42;6.57;;;2.15;;
59052;SDS011;44843;44.728;10.396;2023-06-14T04:50:08;9.38;;;2.80;;
59052;SDS011;44843;44.728;10.396;2023-06-14T04:52:35;5.03;;;2.45;;
59052;SDS011;44843;44.728;10.396;2023-06-14T04:55:00;6.20;;;2.80;;
59052;SDS011;44843;44.728;10.396;2023-06-14T04:57:26;8.32;;;2.42;;
59052;SDS011;44843;44.728;10.396;2023-06-14T04:59:52;3.08;;;2.35;;
59052;SDS011;44843;44.728;10.396;2023-06-14T05:02:22;5.15;;;2.38;;
59052;SDS011;44843;44.728;10.396;2023-06-14T05:04:49;5.22;;;2.50;;
59052;SDS011;44843;44.728;10.396;2023-06-14T05:07:15;7.93;;;3.08;;
59052;SDS011;44843;44.728;10.396;2023-06-14T05:09:40;6.13;;;2.42;;
59052;SDS011;44843;44.728;10.396;2023-06-14T05:12:06;5.17;;;2.60;;
59052;SDS011;44843;44.728;10.396;2023-06-14T05:14:35;7.68;;;2.83;;
59052;SDS011;44843;44.728;10.396;2023-06-14T05:17:00;5.80;;;2.80;;
59052;SDS011;44843;44.728;10.396;2023-06-14T05:19:27;5.43;;;2.70;;
59052;SDS011;44843;44.728;10.396;2023-06-14T05:21:53;6.40;;;2.92;;
59052;SDS011;44843;44.728;10.396;2023-06-14T05:24:18;6.07;;;2.80;;
59052;SDS011;44843;44.728;10.396;2023-06-14T05:26:44;6.80;;;2.35;;
59052;SDS011;44843;44.728;10.396;2023-06-14T05:29:10;4.13;;;2.20;;
59052;SDS011;44843;44.728;10.396;2023-06-14T05:31:35;5.47;;;2.80;;
59052;SDS011;44843;44.728;10.396;2023-06-14T05:34:00;7.07;;;2.50;;
59052;SDS011;44843;44.728;10.396;2023-06-14T05:36:26;5.20;;;2.60;;
59052;SDS011;44843;44.728;10.396;2023-06-14T05:38:53;8.10;;;2.60;;
59052;SDS011;44843;44.728;10.396;2023-06-14T05:41:27;6.97;;;2.63;;
59052;SDS011;44843;44.728;10.396;2023-06-14T05:43:56;5.80;;;2.47;;
59052;SDS011;44843;44.728;10.396;2023-06-14T05:46:22;4.03;;;2.57;;
59052;SDS011;44843;44.728;10.396;2023-06-14T05:48:53;7.50;;;2.90;;
59052;SDS011;44843;44.728;10.396;2023-06-14T05:51:19;6.45;;;2.92;;
59052;SDS011;44843;44.728;10.396;2023-06-14T05:53:45;7.10;;;3.10;;
59052;SDS011;44843;44.728;10.396;2023-06-14T05:56:11;7.07;;;3.03;;
59052;SDS011;44843;44.728;10.396;2023-06-14T05:58:37;5.83;;;3.03;;
59052;SDS011;44843;44.728;10.396;2023-06-14T06:01:03;5.87;;;3.13;;
59052;SDS011;44843;44.728;10.396;2023-06-14T06:03:28;7.00;;;3.30;;
59052;SDS011;44843;44.728;10.396;2023-06-14T06:05:56;6.30;;;3.38;;
59052;SDS011;44843;44.728;10.396;2023-06-14T06:08:23;4.75;;;2.80;;
59052;SDS011;44843;44.728;10.396;2023-06-14T06:10:49;6.35;;;3.30;;
59052;SDS011;44843;44.728;10.396;2023-06-14T06:13:14;8.20;;;3.20;;
59052;SDS011;44843;44.728;10.396;2023-06-14T06:15:40;5.13;;;3.70;;
59052;SDS011;44843;44.728;10.396;2023-06-14T06:18:05;9.40;;;3.22;;
59052;SDS011;44843;44.728;10.396;2023-06-14T06:20:31;8.45;;;3.60;;
59052;SDS011;44843;44.728;10.396;2023-06-14T06:22:57;8.23;;;3.65;;
59052;SDS011;44843;44.728;10.396;2023-06-14T06:25:23;7.03;;;3.33;;
59052;SDS011;44843;44.728;10.396;2023-06-14T06:27:51;4.82;;;3.65;;
59052;SDS011;44843;44.728;10.396;2023-06-14T06:30:17;4.78;;;3.88;;
59052;SDS011;44843;44.728;10.396;2023-06-14T06:32:43;4.60;;;3.67;;
59052;SDS011;44843;44.728;10.396;2023-06-14T06:35:08;6.45;;;3.20;;
59052;SDS011;44843;44.728;10.396;2023-06-14T06:37:35;5.18;;;3.35;;
59052;SDS011;44843;44.728;10.396;2023-06-14T06:40:01;5.00;;;3.35;;
59052;SDS011;44843;44.728;10.396;2023-06-14T06:42:28;6.22;;;3.40;;
59052;SDS011;44843;44.728;10.396;2023-06-14T06:44:54;5.75;;;3.15;;
59052;SDS011;44843;44.728;10.396;2023-06-14T06:47:19;5.35;;;3.50;;
59052;SDS011;44843;44.728;10.396;2023-06-14T06:49:44;6.28;;;4.30;;
59052;SDS011;44843;44.728;10.396;2023-06-14T06:52:10;6.03;;;4.30;;
59052;SDS011;44843;44.728;10.396;2023-06-14T06:54:35;9.90;;;4.20;;
59052;SDS011;44843;44.728;10.396;2023-06-14T06:57:01;10.35;;;4.60;;
59052;SDS011;44843;44.728;10.396;2023-06-14T06:59:26;4.93;;;4.05;;
59052;SDS011;44843;44.728;10.396;2023-06-14T07:01:52;5.38;;;4.05;;
59052;SDS011;44843;44.728;10.396;2023-06-14T07:04:17;9.90;;;4.35;;
59052;SDS011;44843;44.728;10.396;2023-06-14T07:06:43;6.78;;;4.38;;
59052;SDS011;44843;44.728;10.396;2023-06-14T07:09:09;10.05;;;5.43;;
59052;SDS011;44843;44.728;10.396;2023-06-14T07:11:40;10.82;;;5.68;;
59052;SDS011;44843;44.728;10.396;2023-06-14T07:14:07;9.85;;;5.88;;
59052;SDS011;44843;44.728;10.396;2023-06-14T07:16:32;12.75;;;5.20;;
59052;SDS011;44843;44.728;10.396;2023-06-14T07:18:58;14.27;;;5.53;;
59052;SDS011;44843;44.728;10.396;2023-06-14T07:21:24;10.85;;;5.60;;
59052;SDS011;44843;44.728;10.396;2023-06-14T07:23:51;11.32;;;7.10;;
59052;SDS011;44843;44.728;10.396;2023-06-14T07:26:17;8.30;;;5.75;;
59052;SDS011;44843;44.728;10.396;2023-06-14T07:28:42;9.40;;;6.15;;
59052;SDS011;44843;44.728;10.396;2023-06-14T07:31:10;8.90;;;5.55;;
59052;SDS011;44843;44.728;10.396;2023-06-14T07:33:36;7.97;;;5.30;;
59052;SDS011;44843;44.728;10.396;2023-06-14T07:36:01;8.48;;;5.55;;
59052;SDS011;44843;44.728;10.396;2023-06-14T07:38:27;6.18;;;4.95;;
59052;SDS011;44843;44.728;10.396;2023-06-14T07:40:53;7.90;;;5.07;;
59052;SDS011;44843;44.728;10.396;2023-06-14T07:43:18;7.22;;;4.80;;
59052;SDS011;44843;44.728;10.396;2023-06-14T07:45:44;7.13;;;5.40;;
59052;SDS011;44843;44.728;10.396;2023-06-14T07:48:09;6.65;;;5.38;;
59052;SDS011;44843;44.728;10.396;2023-06-14T07:50:34;9.68;;;5.28;;
59052;SDS011;44843;44.728;10.396;2023-06-14T07:53:00;8.18;;;5.25;;
59052;SDS011;44843;44.728;10.396;2023-06-14T07:55:25;12.73;;;5.88;;
59052;SDS011;44843;44.728;10.396;2023-06-14T07:57:51;8.95;;;5.57;;
59052;SDS011;44843;44.728;10.396;2023-06-14T08:00:17;9.70;;;5.45;;
59052;SDS011;44843;44.728;10.396;2023-06-14T08:02:43;6.82;;;5.28;;
59052;SDS011;44843;44.728;10.396;2023-06-14T08:05:10;13.80;;;5.93;;
59052;SDS011;44843;44.728;10.396;2023-06-14T08:07:36;11.20;;;6.28;;
59052;SDS011;44843;44.728;10.396;2023-06-14T08:10:02;9.18;;;6.00;;
59052;SDS011;44843;44.728;10.396;2023-06-14T08:12:28;11.02;;;6.50;;
59052;SDS011;44843;44.728;10.396;2023-06-14T08:14:53;15.75;;;7.05;;
59052;SDS011;44843;44.728;10.396;2023-06-14T08:17:19;11.90;;;7.15;;
59052;SDS011;44843;44.728;10.396;2023-06-14T08:19:44;13.00;;;7.15;;
59052;SDS011;44843;44.728;10.396;2023-06-14T08:22:10;12.05;;;7.10;;
59052;SDS011;44843;44.728;10.396;2023-06-14T08:24:37;12.05;;;6.68;;
59052;SDS011;44843;44.728;10.396;2023-06-14T08:27:02;12.35;;;7.07;;
59052;SDS011;44843;44.728;10.396;2023-06-14T08:29:28;11.07;;;7.53;;
59052;SDS011;44843;44.728;10.396;2023-06-14T08:31:56;9.20;;;6.28;;
59052;SDS011;44843;44.728;10.396;2023-06-14T08:34:22;10.20;;;6.55;;
59052;SDS011;44843;44.728;10.396;2023-06-14T08:36:49;11.13;;;6.88;;
59052;SDS011;44843;44.728;10.396;2023-06-14T08:39:15;14.05;;;8.13;;
59052;SDS011;44843;44.728;10.396;2023-06-14T08:41:41;10.02;;;7.13;;
59052;SDS011;44843;44.728;10.396;2023-06-14T08:44:10;12.38;;;7.30;;
59052;SDS011;44843;44.728;10.396;2023-06-14T08:46:36;12.43;;;7.55;;
59052;SDS011;44843;44.728;10.396;2023-06-14T08:49:02;10.77;;;7.55;;
59052;SDS011;44843;44.728;10.396;2023-06-14T08:51:30;11.13;;;7.35;;
59052;SDS011;44843;44.728;10.396;2023-06-14T08:54:02;13.55;;;8.32;;
59052;SDS011;44843;44.728;10.396;2023-06-14T08:56:30;19.40;;;8.30;;
59052;SDS011;44843;44.728;10.396;2023-06-14T08:58:59;11.23;;;7.47;;
59052;SDS011;44843;44.728;10.396;2023-06-14T09:01:27;12.50;;;6.22;;
59052;SDS011;44843;44.728;10.396;2023-06-14T09:03:53;9.10;;;6.57;;
59052;SDS011;44843;44.728;10.396;2023-06-14T09:06:20;10.35;;;7.78;;
59052;SDS011;44843;44.728;10.396;2023-06-14T09:08:48;12.40;;;8.27;;
59052;SDS011;44843;44.728;10.396;2023-06-14T09:11:15;13.10;;;7.05;;
59052;SDS011;44843;44.728;10.396;2023-06-14T09:13:43;9.63;;;5.90;;
59052;SDS011;44843;44.728;10.396;2023-06-14T09:16:09;7.68;;;5.32;;
59052;SDS011;44843;44.728;10.396;2023-06-14T09:18:37;6.63;;;3.58;;
59052;SDS011;44843;44.728;10.396;2023-06-14T09:21:04;2.42;;;1.88;;
59052;SDS011;44843;44.728;10.396;2023-06-14T09:23:33;10.18;;;5.85;;
59052;SDS011;44843;44.728;10.396;2023-06-14T09:26:05;8.32;;;5.13;;
59052;SDS011;44843;44.728;10.396;2023-06-14T09:28:35;8.00;;;4.17;;
59052;SDS011;44843;44.728;10.396;2023-06-14T09:31:01;8.80;;;3.92;;
59052;SDS011;44843;44.728;10.396;2023-06-14T09:33:27;3.20;;;2.65;;
59052;SDS011;44843;44.728;10.396;2023-06-14T09:35:53;3.28;;;2.22;;
59052;SDS011;44843;44.728;10.396;2023-06-14T09:38:19;4.65;;;2.55;;
59052;SDS011;44843;44.728;10.396;2023-06-14T09:40:45;6.22;;;3.20;;
59052;SDS011;44843;44.728;10.396;2023-06-14T09:43:10;5.10;;;2.72;;
59052;SDS011;44843;44.728;10.396;2023-06-14T09:45:36;3.22;;;2.80;;
59052;SDS011;44843;44.728;10.396;2023-06-14T09:48:05;4.72;;;3.38;;
59052;SDS011;44843;44.728;10.396;2023-06-14T09:50:32;4.95;;;2.47;;
59052;SDS011;44843;44.728;10.396;2023-06-14T09:52:59;4.13;;;2.75;;
59052;SDS011;44843;44.728;10.396;2023-06-14T09:55:28;3.47;;;2.80;;
59052;SDS011;44843;44.728;10.396;2023-06-14T09:57:56;5.55;;;3.95;;
59052;SDS011;44843;44.728;10.396;2023-06-14T10:00:24;5.38;;;3.72;;
59052;SDS011;44843;44.728;10.396;2023-06-14T10:02:53;4.53;;;3.70;;
59052;SDS011;44843;44.728;10.396;2023-06-14T10:05:25;4.68;;;3.58;;
59052;SDS011;44843;44.728;10.396;2023-06-14T10:07:56;6.40;;;4.18;;
59052;SDS011;44843;44.728;10.396;2023-06-14T10:10:29;5.80;;;3.65;;
59052;SDS011;44843;44.728;10.396;2023-06-14T10:12:54;4.07;;;2.65;;
59052;SDS011;44843;44.728;10.396;2023-06-14T10:15:25;4.65;;;3.35;;
59052;SDS011;44843;44.728;10.396;2023-06-14T10:21:04;4.65;;;3.10;;
59052;SDS011;44843;44.728;10.396;2023-06-14T10:23:37;7.82;;;5.05;;
59052;SDS011;44843;44.728;10.396;2023-06-14T10:26:06;7.47;;;5.45;;
59052;SDS011;44843;44.728;10.396;2023-06-14T10:28:31;8.27;;;5.20;;
59052;SDS011;44843;44.728;10.396;2023-06-14T10:33:29;6.88;;;4.30;;
59052;SDS011;44843;44.728;10.396;2023-06-14T10:41:27;5.00;;;3.78;;
59052;SDS011;44843;44.728;10.396;2023-06-14T10:44:10;5.32;;;3.78;;
59052;SDS011;44843;44.728;10.396;2023-06-14T10:46:39;6.72;;;4.90;;
59052;SDS011;44843;44.728;10.396;2023-06-14T10:49:05;6.03;;;4.15;;
59052;SDS011;44843;44.728;10.396;2023-06-14T10:51:37;6.88;;;4.30;;
59052;SDS011;44843;44.728;10.396;2023-06-14T10:54:11;6.03;;;4.25;;
59052;SDS011;44843;44.728;10.396;2023-06-14T10:56:38;9.68;;;6.10;;
59052;SDS011;44843;44.728;10.396;2023-06-14T10:59:14;8.18;;;4.07;;
59052;SDS011;44843;44.728;10.396;2023-06-14T11:01:47;6.93;;;5.00;;
59052;SDS011;44843;44.728;10.396;2023-06-14T11:04:52;4.70;;;4.20;;
59052;SDS011;44843;44.728;10.396;2023-06-14T11:12:55;5.25;;;3.55;;
59052;SDS011;44843;44.728;10.396;2023-06-14T11:15:27;3.85;;;3.25;;
59052;SDS011;44843;44.728;10.396;2023-06-14T11:17:53;6.85;;;4.00;;
59052;SDS011;44843;44.728;10.396;2023-06-14T11:20:19;10.05;;;7.25;;
59052;SDS011;44843;44.728;10.396;2023-06-14T11:22:44;9.13;;;6.82;;
59052;SDS011;44843;44.728;10.396;2023-06-14T11:25:13;11.63;;;7.53;;
59052;SDS011;44843;44.728;10.396;2023-06-14T11:27:39;10.60;;;7.30;;
59052;SDS011;44843;44.728;10.396;2023-06-14T11:30:07;8.95;;;7.07;;
59052;SDS011;44843;44.728;10.396;2023-06-14T11:32:32;7.82;;;6.43;;
59052;SDS011;44843;44.728;10.396;2023-06-14T11:34:58;6.93;;;6.22;;
59052;SDS011;44843;44.728;10.396;2023-06-14T11:37:25;10.85;;;7.03;;
59052;SDS011;44843;44.728;10.396;2023-06-14T11:39:55;8.35;;;6.93;;
59052;SDS011;44843;44.728;10.396;2023-06-14T11:42:21;10.20;;;6.75;;
59052;SDS011;44843;44.728;10.396;2023-06-14T11:44:46;11.10;;;6.72;;
59052;SDS011;44843;44.728;10.396;2023-06-14T11:47:12;8.10;;;6.72;;
59052;SDS011;44843;44.728;10.396;2023-06-14T11:49:38;8.40;;;6.10;;
59052;SDS011;44843;44.728;10.396;2023-06-14T11:52:03;8.98;;;6.78;;
59052;SDS011;44843;44.728;10.396;2023-06-14T11:54:30;7.53;;;6.40;;
59052;SDS011;44843;44.728;10.396;2023-06-14T11:56:56;10.30;;;6.55;;
59052;SDS011;44843;44.728;10.396;2023-06-14T11:59:24;11.10;;;6.82;;
59052;SDS011;44843;44.728;10.396;2023-06-14T12:01:49;9.40;;;7.18;;
59052;SDS011;44843;44.728;10.396;2023-06-14T12:04:22;11.32;;;7.50;;
59052;SDS011;44843;44.728;10.396;2023-06-14T12:06:50;10.43;;;7.35;;
59052;SDS011;44843;44.728;10.396;2023-06-14T12:09:18;9.60;;;6.65;;
59052;SDS011;44843;44.728;10.396;2023-06-14T12:11:44;10.63;;;6.68;;
59052;SDS011;44843;44.728;10.396;2023-06-14T12:14:10;9.45;;;6.70;;
59052;SDS011;44843;44.728;10.396;2023-06-14T12:16:37;10.57;;;7.53;;
59052;SDS011;44843;44.728;10.396;2023-06-14T12:19:14;9.50;;;7.68;;
59052;SDS011;44843;44.728;10.396;2023-06-14T12:21:41;7.13;;;6.32;;
59052;SDS011;44843;44.728;10.396;2023-06-14T12:24:07;6.68;;;5.97;;
59052;SDS011;44843;44.728;10.396;2023-06-14T12:26:32;6.95;;;6.25;;
59052;SDS011;44843;44.728;10.396;2023-06-14T12:28:58;6.50;;;5.65;;
59052;SDS011;44843;44.728;10.396;2023-06-14T12:31:24;8.57;;;6.70;;
59052;SDS011;44843;44.728;10.396;2023-06-14T12:33:49;11.35;;;5.90;;
59052;SDS011;44843;44.728;10.396;2023-06-14T12:36:15;6.65;;;5.53;;
59052;SDS011;44843;44.728;10.396;2023-06-14T12:38:42;6.72;;;5.13;;
59052;SDS011;44843;44.728;10.396;2023-06-14T12:41:07;7.53;;;5.85;;
59052;SDS011;44843;44.728;10.396;2023-06-14T12:43:33;6.28;;;5.50;;
59052;SDS011;44843;44.728;10.396;2023-06-14T12:45:59;8.00;;;5.28;;
59052;SDS011;44843;44.728;10.396;2023-06-14T12:48:25;9.55;;;6.15;;
59052;SDS011;44843;44.728;10.396;2023-06-14T12:50:52;8.98;;;6.38;;
59052;SDS011;44843;44.728;10.396;2023-06-14T12:53:17;8.35;;;5.82;;
59052;SDS011;44843;44.728;10.396;2023-06-14T12:55:43;8.05;;;5.70;;
59052;SDS011;44843;44.728;10.396;2023-06-14T12:58:08;7.30;;;6.18;;
59052;SDS011;44843;44.728;10.396;2023-06-14T13:00:33;7.70;;;6.20;;
59052;SDS011;44843;44.728;10.396;2023-06-14T13:03:00;6.85;;;6.07;;
59052;SDS011;44843;44.728;10.396;2023-06-14T13:05:25;7.18;;;5.55;;
59052;SDS011;44843;44.728;10.396;2023-06-14T13:07:51;10.88;;;6.53;;
59052;SDS011;44843;44.728;10.396;2023-06-14T13:10:16;8.95;;;6.35;;
59052;SDS011;44843;44.728;10.396;2023-06-14T13:12:42;8.30;;;5.90;;
59052;SDS011;44843;44.728;10.396;2023-06-14T13:15:08;8.88;;;6.53;;
59052;SDS011;44843;44.728;10.396;2023-06-14T13:17:34;9.70;;;6.07;;
59052;SDS011;44843;44.728;10.396;2023-06-14T13:20:06;8.25;;;5.90;;
59052;SDS011;44843;44.728;10.396;2023-06-14T13:22:33;7.97;;;5.60;;
59052;SDS011;44843;44.728;10.396;2023-06-14T13:24:59;11.55;;;6.65;;
59052;SDS011;44843;44.728;10.396;2023-06-14T13:27:25;6.90;;;5.07;;
59052;SDS011;44843;44.728;10.396;2023-06-14T13:29:51;7.60;;;5.03;;
59052;SDS011;44843;44.728;10.396;2023-06-14T13:32:16;6.53;;;4.72;;
59052;SDS011;44843;44.728;10.396;2023-06-14T13:34:41;8.50;;;5.07;;
59052;SDS011;44843;44.728;10.396;2023-06-14T13:37:07;7.65;;;5.32;;
59052;SDS011;44843;44.728;10.396;2023-06-14T13:39:32;7.00;;;5.60;;
59052;SDS011;44843;44.728;10.396;2023-06-14T13:41:58;7.78;;;5.82;;
59052;SDS011;44843;44.728;10.396;2023-06-14T13:44:23;11.13;;;5.35;;
59052;SDS011;44843;44.728;10.396;2023-06-14T13:46:50;6.50;;;5.85;;
59052;SDS011;44843;44.728;10.396;2023-06-14T13:49:15;10.10;;;5.30;;
59052;SDS011;44843;44.728;10.396;2023-06-14T13:51:40;9.40;;;5.78;;
59052;SDS011;44843;44.728;10.396;2023-06-14T13:54:06;6.43;;;5.65;;
59052;SDS011;44843;44.728;10.396;2023-06-14T13:56:31;7.57;;;5.55;;
59052;SDS011;44843;44.728;10.396;2023-06-14T13:58:57;7.45;;;5.47;;
59052;SDS011;44843;44.728;10.396;2023-06-14T14:01:22;6.70;;;5.55;;
59052;SDS011;44843;44.728;10.396;2023-06-14T14:03:49;7.78;;;5.70;;
59052;SDS011;44843;44.728;10.396;2023-06-14T14:06:15;6.50;;;5.05;;
59052;SDS011;44843;44.728;10.396;2023-06-14T14:08:40;10.18;;;5.18;;
59052;SDS011;44843;44.728;10.396;2023-06-14T14:11:06;7.93;;;5.85;;
59052;SDS011;44843;44.728;10.396;2023-06-14T14:13:32;7.82;;;5.57;;
59052;SDS011;44843;44.728;10.396;2023-06-14T14:15:58;6.82;;;5.10;;
59052;SDS011;44843;44.728;10.396;2023-06-14T14:18:24;7.43;;;4.72;;
59052;SDS011;44843;44.728;10.396;2023-06-14T14:20:49;6.75;;;4.93;;
59052;SDS011;44843;44.728;10.396;2023-06-14T14:23:15;5.65;;;4.63;;
59052;SDS011;44843;44.728;10.396;2023-06-14T14:25:40;6.35;;;4.85;;
59052;SDS011;44843;44.728;10.396;2023-06-14T14:28:06;12.02;;;4.75;;
59052;SDS011;44843;44.728;10.396;2023-06-14T14:30:31;6.35;;;4.88;;
59052;SDS011;44843;44.728;10.396;2023-06-14T14:32:57;6.28;;;4.47;;
59052;SDS011;44843;44.728;10.396;2023-06-14T14:35:23;6.18;;;4.43;;
59052;SDS011;44843;44.728;10.396;2023-06-14T14:37:51;5.20;;;3.72;;
59052;SDS011;44843;44.728;10.396;2023-06-14T14:40:16;5.65;;;4.55;;
59052;SDS011;44843;44.728;10.396;2023-06-14T14:42:42;5.00;;;4.38;;
59052;SDS011;44843;44.728;10.396;2023-06-14T14:45:07;6.60;;;4.55;;
59052;SDS011;44843;44.728;10.396;2023-06-14T14:47:33;6.97;;;4.53;;
59052;SDS011;44843;44.728;10.396;2023-06-14T14:49:58;6.70;;;4.60;;
59052;SDS011;44843;44.728;10.396;2023-06-14T14:52:23;5.93;;;4.78;;